Map

Track Data

SID SEASON NUMBER BASIN SUBBASIN NAME ISO_TIME NATURE LAT LON WMO_WIND WMO_PRES WMO_AGENCY TRACK_TYPE DIST2LAND LANDFALL IFLAG USA_AGENCY USA_ATCF_ID USA_LAT USA_LON USA_RECORD USA_STATUS USA_WIND USA_PRES USA_SSHS USA_R34_NE USA_R34_SE USA_R34_SW USA_R34_NW USA_R50_NE USA_R50_SE USA_R50_SW USA_R50_NW USA_R64_NE USA_R64_SE USA_R64_SW USA_R64_NW USA_POCI USA_ROCI USA_RMW USA_EYE TOKYO_LAT TOKYO_LON TOKYO_GRADE TOKYO_WIND TOKYO_PRES TOKYO_R50_DIR TOKYO_R50_LONG TOKYO_R50_SHORT TOKYO_R30_DIR TOKYO_R30_LONG TOKYO_R30_SHORT TOKYO_LAND CMA_LAT CMA_LON CMA_CAT CMA_WIND CMA_PRES HKO_LAT HKO_LON HKO_CAT HKO_WIND HKO_PRES NEWDELHI_LAT NEWDELHI_LON NEWDELHI_GRADE NEWDELHI_WIND NEWDELHI_PRES NEWDELHI_CI NEWDELHI_DP NEWDELHI_POCI REUNION_LAT REUNION_LON REUNION_TYPE REUNION_WIND REUNION_PRES REUNION_TNUM REUNION_CI REUNION_RMW REUNION_R34_NE REUNION_R34_SE REUNION_R34_SW REUNION_R34_NW REUNION_R50_NE REUNION_R50_SE REUNION_R50_SW REUNION_R50_NW REUNION_R64_NE REUNION_R64_SE REUNION_R64_SW REUNION_R64_NW BOM_LAT BOM_LON BOM_TYPE BOM_WIND BOM_PRES BOM_TNUM BOM_CI BOM_RMW BOM_R34_NE BOM_R34_SE BOM_R34_SW BOM_R34_NW BOM_R50_NE BOM_R50_SE BOM_R50_SW BOM_R50_NW BOM_R64_NE BOM_R64_SE BOM_R64_SW BOM_R64_NW BOM_ROCI BOM_POCI BOM_EYE BOM_POS_METHOD BOM_PRES_METHOD NADI_LAT NADI_LON NADI_CAT NADI_WIND NADI_PRES WELLINGTON_LAT WELLINGTON_LON WELLINGTON_WIND WELLINGTON_PRES DS824_LAT DS824_LON DS824_STAGE DS824_WIND DS824_PRES TD9636_LAT TD9636_LON TD9636_STAGE TD9636_WIND TD9636_PRES TD9635_LAT TD9635_LON TD9635_WIND TD9635_PRES TD9635_ROCI NEUMANN_LAT NEUMANN_LON NEUMANN_CLASS NEUMANN_WIND NEUMANN_PRES MLC_LAT MLC_LON MLC_CLASS MLC_WIND MLC_PRES USA_GUST BOM_GUST BOM_GUST_PER REUNION_GUST REUNION_GUST_PER USA_SEAHGT USA_SEARAD_NE USA_SEARAD_SE USA_SEARAD_SW USA_SEARAD_NW STORM_SPEED STORM_DIR
2014294N20265 2014 80 NA GM HANNA 2014-10-21 00:00:00 DS 19.5000 -95.3000 25 1002 hurdat_atl main 88 88 O_____________ hurdat_atl AL092014 19.5000 -95.3000 LO 25 1002 -3 1006 120 10 4 90
2014294N20265 2014 80 NA GM HANNA 2014-10-21 03:00:00 DS 19.5000 -95.0625 main 90 90 P_____________ AL092014 19.5000 -95.0625 LO 25 1002 -3 1006 120 10 5 90
2014294N20265 2014 80 NA GM HANNA 2014-10-21 06:00:00 DS 19.5000 -94.8000 25 1002 hurdat_atl main 98 98 O_____________ hurdat_atl AL092014 19.5000 -94.8000 LO 25 1002 -3 1006 120 10 5 90
2014294N20265 2014 80 NA GM HANNA 2014-10-21 09:00:00 DS 19.5000 -94.5000 main 113 113 P_____________ AL092014 19.5000 -94.5000 LO 25 1001 -3 1006 120 10 6 90
2014294N20265 2014 80 NA GM HANNA 2014-10-21 12:00:00 DS 19.5000 -94.2000 25 1001 hurdat_atl main 131 131 O_____________ hurdat_atl AL092014 19.5000 -94.2000 LO 25 1001 -3 1006 120 10 5 90
2014294N20265 2014 80 NA GM HANNA 2014-10-21 15:00:00 DS 19.5000 -93.9350 main 134 134 P_____________ AL092014 19.5000 -93.9350 LO 27 1000 -3 1006 120 10 5 90
2014294N20265 2014 80 NA GM HANNA 2014-10-21 18:00:00 DS 19.5000 -93.7000 30 1000 hurdat_atl main 134 131 O_____________ hurdat_atl AL092014 19.5000 -93.7000 LO 30 1000 -3 1006 120 10 4 90
2014294N20265 2014 80 NA GM HANNA 2014-10-21 21:00:00 DS 19.5000 -93.4925 main 131 118 P_____________ AL092014 19.5000 -93.4925 LO 30 1000 -3 1006 120 10 4 90
2014294N20265 2014 80 NA GM HANNA 2014-10-22 00:00:00 TS 19.5000 -93.3000 30 1000 hurdat_atl main 118 109 O_____________ hurdat_atl AL092014 19.5000 -93.3000 TD 30 1000 -1 1006 120 10 4 89
2014294N20265 2014 80 NA GM HANNA 2014-10-22 03:00:00 TS 19.5075 -93.1075 main 109 102 P_____________ AL092014 19.5075 -93.1075 TD 30 1000 -1 1006 120 10 4 90
2014294N20265 2014 80 NA GM HANNA 2014-10-22 06:00:00 TS 19.5000 -92.9000 30 1001 hurdat_atl main 102 100 O_____________ hurdat_atl AL092014 19.5000 -92.9000 TD 30 1001 -1 1006 120 10 4 97
2014294N20265 2014 80 NA GM HANNA 2014-10-22 09:00:00 TS 19.4575 -92.6575 main 100 89 P_____________ AL092014 19.4575 -92.6575 TD 30 1001 -1 1006 120 10 5 102
2014294N20265 2014 80 NA GM HANNA 2014-10-22 12:00:00 TS 19.4000 -92.4000 30 1002 hurdat_atl main 89 89 O_____________ hurdat_atl AL092014 19.4000 -92.4000 TD 30 1002 -1 1006 120 10 5 103
2014294N20265 2014 80 NA GM HANNA 2014-10-22 15:00:00 TS 19.3499 -92.1575 main 78 61 P_____________ AL092014 19.3499 -92.1575 TD 30 1002 -1 1006 120 10 5 102
2014294N20265 2014 80 NA GM HANNA 2014-10-22 18:00:00 TS 19.3000 -91.9000 30 1003 hurdat_atl main 61 45 O_____________ hurdat_atl AL092014 19.3000 -91.9000 TD 30 1003 -1 1006 120 10 40 5 99
2014294N20265 2014 80 NA GM HANNA 2014-10-22 21:00:00 TS 19.2650 -91.6001 main 45 22 P_____________ AL092014 19.2650 -91.6001 TD 27 1003 -1 1006 110 17 6 100
2014294N20265 2014 80 NA GM HANNA 2014-10-23 00:00:00 DS 19.2000 -91.3000 25 1004 hurdat_atl main 22 0 O_____________ hurdat_atl AL092014 19.2000 -91.3000 LO 25 1004 -3 1007 100 25 35 6 110
2014294N20265 2014 80 NA NA HANNA 2014-10-23 03:00:00 DS 19.0650 -91.0275 main 0 0 P_____________ AL092014 19.0650 -91.0275 LO 22 1004 -3 1007 100 25 6 122
2014294N20265 2014 80 NA NA HANNA 2014-10-23 06:00:00 DS 18.9000 -90.8000 20 1005 hurdat_atl main 0 0 O_____________ hurdat_atl AL092014 18.9000 -90.8000 LO 20 1005 -3 1007 100 25 5 131
2014294N20265 2014 80 NA NA HANNA 2014-10-23 09:00:00 DS 18.7574 -90.6501 main 0 0 P_____________ AL092014 18.7574 -90.6501 LO 20 1005 -3 1007 100 25 4 137
2014294N20265 2014 80 NA NA HANNA 2014-10-23 12:00:00 DS 18.6000 -90.5000 20 1006 hurdat_atl main 0 0 O_____________ hurdat_atl AL092014 18.6000 -90.5000 LO 20 1006 -3 1007 100 25 5 135
2014294N20265 2014 80 NA NA HANNA 2014-10-23 15:00:00 DS 18.4000 -90.2725 main 0 0 P_____________ AL092014 18.4000 -90.2725 LO 20 1006 -3 1008 100 22 6 130
2014294N20265 2014 80 NA NA HANNA 2014-10-23 18:00:00 DS 18.2000 -90.0000 20 1007 hurdat_atl main 0 0 O_____________ hurdat_atl AL092014 18.2000 -90.0000 LO 20 1007 -3 1009 100 20 7 127
2014294N20265 2014 80 NA NA HANNA 2014-10-23 21:00:00 DS 18.0049 -89.7299 main 0 0 P_____________ AL092014 18.0049 -89.7299 LO 20 1007 -3 1009 100 25 6 118
2014294N20265 2014 80 NA NA HANNA 2014-10-24 00:00:00 DS 17.9000 -89.4000 20 1008 hurdat_atl main 0 0 O_____________ hurdat_atl AL092014 17.9000 -89.4000 LO 20 1008 -3 1009 100 30 7 94
2014294N20265 2014 80 NA NA HANNA 2014-10-24 03:00:00 DS 17.9551 -88.9652 main 0 0 P_____________ AL092014 17.9551 -88.9652 LO 20 1008 -3 1009 100 30 9 77
2014294N20265 2014 80 NA NA HANNA 2014-10-24 06:00:00 DS 18.1000 -88.5000 20 1008 hurdat_atl main 0 0 O_____________ hurdat_atl AL092014 18.1000 -88.5000 LO 20 1008 -3 1009 100 30 9 72
2014294N20265 2014 80 NA CS HANNA 2014-10-24 09:00:00 DS 18.2349 -88.0849 main 0 0 P_____________ AL092014 18.2349 -88.0849 LO 20 1008 -3 1009 100 30 8 68
2014294N20265 2014 80 NA CS HANNA 2014-10-24 12:00:00 DS 18.4000 -87.7000 20 1008 hurdat_atl main 10 10 O_____________ hurdat_atl AL092014 18.4000 -87.7000 LO 20 1008 -3 1009 100 30 8 62
2014294N20265 2014 80 NA CS HANNA 2014-10-24 15:00:00 DS 18.6073 -87.3500 main 31 31 P_____________ AL092014 18.6073 -87.3500 LO 20 1008 -3 1010 100 30 8 59
2014294N20265 2014 80 NA CS HANNA 2014-10-24 18:00:00 DS 18.8000 -87.0000 20 1008 hurdat_atl main 64 64 O_____________ hurdat_atl AL092014 18.8000 -87.0000 LO 20 1008 -3 1012 100 30 8 64
2014294N20265 2014 80 NA CS HANNA 2014-10-24 21:00:00 DS 18.9449 -86.6151 main 100 97 P_____________ AL092014 18.9449 -86.6151 LO 20 1008 -3 1011 100 35 8 75
2014294N20265 2014 80 NA CS HANNA 2014-10-25 00:00:00 NR 19.0000 -86.2000 20 1008 hurdat_atl main 137 137 O_____________ hurdat_atl AL092014 19.0000 -86.2000 DB 20 1008 -3 1010 100 40 8 89
2014294N20265 2014 80 NA CS HANNA 2014-10-25 03:00:00 NR 18.9525 -85.7500 main 187 187 P_____________ AL092014 18.9525 -85.7500 DB 20 1008 -3 1010 100 40 9 103
2014294N20265 2014 80 NA CS HANNA 2014-10-25 06:00:00 NR 18.8000 -85.3000 20 1008 hurdat_atl main 234 234 O_____________ hurdat_atl AL092014 18.8000 -85.3000 DB 20 1008 -3 1010 100 40 9 115
2014294N20265 2014 80 NA CS HANNA 2014-10-25 09:00:00 NR 18.5799 -84.8925 main 281 268 P_____________ AL092014 18.5799 -84.8925 DB 22 1008 -3 1010 100 40 9 123
2014294N20265 2014 80 NA CS HANNA 2014-10-25 12:00:00 NR 18.3000 -84.5000 25 1008 hurdat_atl main 269 243 O_____________ hurdat_atl AL092014 18.3000 -84.5000 DB 25 1008 -3 1011 100 40 9 127
2014294N20265 2014 80 NA CS HANNA 2014-10-25 15:00:00 NR 18.0074 -84.1001 main 243 222 P_____________ AL092014 18.0074 -84.1001 DB 25 1008 -3 1010 100 40 10 128
2014294N20265 2014 80 NA CS HANNA 2014-10-25 18:00:00 NR 17.7000 -83.7000 25 1008 hurdat_atl main 222 203 O_____________ hurdat_atl AL092014 17.7000 -83.7000 DB 25 1008 -3 1010 100 40 10 128
2014294N20265 2014 80 NA CS HANNA 2014-10-25 21:00:00 NR 17.4000 -83.2926 main 208 202 P_____________ AL092014 17.4000 -83.2926 DB 25 1007 -3 1010 100 40 10 128
2014294N20265 2014 80 NA CS HANNA 2014-10-26 00:00:00 NR 17.1000 -82.9000 25 1007 hurdat_atl main 204 188 O_____________ hurdat_atl AL092014 17.1000 -82.9000 DB 25 1007 -3 1010 100 40 10 129
2014294N20265 2014 80 NA CS HANNA 2014-10-26 03:00:00 NR 16.7925 -82.5200 main 193 180 P_____________ AL092014 16.7925 -82.5200 DB 25 1007 -3 1010 100 40 9 132
2014294N20265 2014 80 NA CS HANNA 2014-10-26 06:00:00 NR 16.5000 -82.2000 25 1007 hurdat_atl main 185 185 O_____________ hurdat_atl AL092014 16.5000 -82.2000 DB 25 1007 -3 1010 100 40 8 135
2014294N20265 2014 80 NA CS HANNA 2014-10-26 09:00:00 NR 16.2425 -81.9476 main 185 178 P_____________ AL092014 16.2425 -81.9476 DB 27 1006 -3 1010 112 40 6 142
2014294N20265 2014 80 NA CS HANNA 2014-10-26 12:00:00 DS 16.0000 -81.8000 30 1006 hurdat_atl main 178 165 O_____________ hurdat_atl AL092014 16.0000 -81.8000 LO 30 1006 -3 1011 125 40 5 160
2014294N20265 2014 80 NA CS HANNA 2014-10-26 15:00:00 DS 15.7425 -81.7551 main 159 150 P_____________ AL092014 15.7425 -81.7551 LO 30 1006 -3 1011 125 40 5 178
2014294N20265 2014 80 NA CS HANNA 2014-10-26 18:00:00 DS 15.5000 -81.8000 30 1006 hurdat_atl main 150 133 O_____________ hurdat_atl AL092014 15.5000 -81.8000 LO 30 1006 -3 1011 125 40 5 194
2014294N20265 2014 80 NA CS HANNA 2014-10-26 21:00:00 DS 15.2700 -81.8700 main 133 118 P_____________ AL092014 15.2700 -81.8700 LO 30 1006 -3 1011 125 40 4 206
2014294N20265 2014 80 NA CS HANNA 2014-10-27 00:00:00 TS 15.1000 -82.0000 30 1006 hurdat_atl main 118 96 O_____________ hurdat_atl AL092014 15.1000 -82.0000 TD 30 1006 -1 1011 125 40 4 230
2014294N20265 2014 80 NA CS HANNA 2014-10-27 03:00:00 TS 15.0275 -82.1700 main 96 75 P_____________ AL092014 15.0275 -82.1700 TD 32 1005 -1 1011 125 40 4 255
2014294N20265 2014 80 NA CS HANNA 2014-10-27 06:00:00 TS 15.0000 -82.4000 35 1005 hurdat_atl main 75 44 O_____________ hurdat_atl AL092014 15.0000 -82.4000 TS 35 1005 0 60 70 1011 125 40 5 260
2014294N20265 2014 80 NA CS HANNA 2014-10-27 09:00:00 TS 14.9409 -82.6995 main 44 15 P_____________ AL092014 14.9409 -82.6995 TS 35 1005 0 60 70 1011 122 40 6 260
2014294N20265 2014 80 NA CS HANNA 2014-10-27 12:00:00 TS 14.9000 -83.0000 35 1005 hurdat_atl main 15 0 O_____________ hurdat_atl AL092014 14.9000 -83.0000 TS 35 1005 0 60 70 1011 120 40 45 5 265
2014294N20265 2014 80 NA CS HANNA 2014-10-27 15:00:00 TS 14.8982 -83.2176 main 0 0 P_____________ AL092014 14.8982 -83.2176 TS 35 1005 0 70 1011 120 40 4 270
2014294N20265 2014 80 NA CS HANNA 2014-10-27 16:00:00 TS 14.9000 -83.3000 35 1005 hurdat_atl main 0 0 O_____________ hurdat_atl AL092014 14.9000 -83.3000 L TS 35 1005 0 70 1011 120 40 5 270
2014294N20265 2014 80 NA NA HANNA 2014-10-27 18:00:00 TS 14.9000 -83.5000 30 1006 hurdat_atl main 0 0 O_____________ hurdat_atl AL092014 14.9000 -83.5000 TD 30 1006 -1 1011 120 60 45 7 272
2014294N20265 2014 80 NA NA HANNA 2014-10-27 21:00:00 TS 14.9189 -83.8704 main 0 0 P_____________ AL092014 14.9189 -83.8704 TD 30 1006 -1 1011 120 60 8 277
2014294N20265 2014 80 NA NA HANNA 2014-10-28 00:00:00 TS 15.0000 -84.3000 30 1007 hurdat_atl main 0 0 O_____________ hurdat_atl AL092014 15.0000 -84.3000 TD 30 1007 -1 1011 120 60 40 9 286
2014294N20265 2014 80 NA NA HANNA 2014-10-28 03:00:00 TS 15.1700 -84.7574 main 0 0 P_____________ AL092014 15.1700 -84.7574 TD 27 1007 -1 1011 120 60 10 295
2014294N20265 2014 80 NA NA HANNA 2014-10-28 06:00:00 DS 15.4000 -85.2000 25 1008 hurdat_atl main 0 0 O_____________ hurdat_atl AL092014 15.4000 -85.2000 LO 25 1008 -3 1011 120 60 9 301
2014294N20265 2014 80 NA NA HANNA 2014-10-28 09:00:00 DS 15.6348 -85.5577 main 0 0 P_____________ AL092014 15.6348 -85.5577 LO 22 1008 -3 1012 120 60 8 307
2014294N20265 2014 80 NA NA HANNA 2014-10-28 12:00:00 DS 15.9000 -85.9000 20 1009 hurdat_atl main 0 0 O_____________ hurdat_atl AL092014 15.9000 -85.9000 LO 20 1009 -3 1013 120 60 9 310
2014294N20265 2014 80 NA CS HANNA 2014-10-28 15:00:00 DS 16.2149 -86.2849 main 44 44 P_____________ AL092014 16.2149 -86.2849 LO 20 1009 -3 1013 120 60 10 308
2014294N20265 2014 80 NA CS HANNA 2014-10-28 18:00:00 DS 16.5000 -86.7000 20 1010 hurdat_atl main 81 79 O_____________ hurdat_atl AL092014 16.5000 -86.7000 LO 20 1010 -3 1013 120 60 9 300
2014294N20265 2014 80 NA CS HANNA 2014-10-28 21:00:00 DS 16.6874 -87.1351 main 100 67 P_____________ AL092014 16.6874 -87.1351 LO 20 1010 -3 1013 120 60 9 289
2014294N20265 2014 80 NA CS HANNA 2014-10-29 00:00:00 DS 16.8000 -87.6000 20 1010 hurdat_atl main 67 15 O_____________ hurdat_atl AL092014 16.8000 -87.6000 LO 20 1010 -3 1013 120 60 9 281
2014294N20265 2014 80 NA CS HANNA 2014-10-29 03:00:00 DS 16.8724 -88.0926 main 15 0 P_____________ AL092014 16.8724 -88.0926 LO 20 1010 -3 1013 120 60 10 276
2014294N20265 2014 80 NA NA HANNA 2014-10-29 06:00:00 DS 16.9000 -88.6000 20 1011 hurdat_atl main 0 0 O_____________ hurdat_atl AL092014 16.9000 -88.6000 LO 20 1011 -3 1013 120 60 10 273
2014294N20265 2014 80 NA NA HANNA 2014-10-29 09:00:00 DS 16.9149 -89.1075 main 0 0 P_____________ AL092014 16.9149 -89.1075 LO 20 1011 -3 1013 120 60 10 270
2014294N20265 2014 80 NA NA HANNA 2014-10-29 12:00:00 DS 16.9000 -89.6000 20 1011 hurdat_atl main 0 0 O_____________ hurdat_atl AL092014 16.9000 -89.6000 LO 20 1011 -3 1013 120 60 9 266
2014294N20265 2014 80 NA NA HANNA 2014-10-29 15:00:00 DS 16.8577 -90.0601 main 0 0 P_____________ AL092014 16.8577 -90.0601 LO 17 1011 -3 1013 120 60 9 263
2014294N20265 2014 80 NA NA HANNA 2014-10-29 18:00:00 DS 16.8000 -90.5000 15 1012 hurdat_atl main 0 O_____________ hurdat_atl AL092014 16.8000 -90.5000 LO 15 1012 -3 1013 120 60 9 262

About IBTrACS Database

This database is a web-friendly format of International Best Track Archive for Climate Stewardship (IBTrACS), a global best track data archive curated by NOAA dating back to 1842.

Updated: 2021-10-25